首页
METAR-TAF:

METAR-TAF

机场 :

突尼斯-迦太基国际机场

突尼斯, 突尼斯

纬度: 36-50N, 经度: 010-14E, 海拔: 3米

当前天气观测

该预报发布于35分钟前的11:00 UTC
风速10节,风向西转西北,在西北转西北之间变化
温度 17°C
湿度 48%
气压 1021 hPa
能见度10公里或以上
少量云层高于2600英尺
散云层高于4000英尺

METAR: DTTA 271100Z 29010KT 260V340 9999 FEW026 SCT040 17/06 Q1021

时间: 12:35 (11:35 UTC)

预报

该预报发布于6小时和35分钟前的05:00 UTC
预报有效从27日的 06点(UTC)到 28日的 06点(UTC)
风速10节,风向西转西南
能见度10公里或以上
散云层高于2600英尺
成为
从 27日的 09点(UTC)到 27日的 11点(UTC)
风速12节,风向西北
成为
从 27日的 18点(UTC)到 27日的 20点(UTC)
风速4节,风向西南

TAF: DTTA 270500Z 2706/2806 25010KT 9999 SCT026 BECMG 2709/2711 31012KT BECMG 2718/2720 23004KT

超过4000个机场的气象观测和天气预报(METAR&TAF报告)。

可查询的气象台以黄色和红色小点在地图上表示。

将鼠标移到小点上方,可查看气象台名称。

然后点击查看天气观测和预报。

如需切换地图:点击带黑十字的绿色按钮放大地图;点击带横线的绿色按钮缩小地图;或者点击绿色箭头查看邻近地区的地图。


METAR-TAF: